.
WxDataArchive / Data Records for 2008-04-28
2008-04-27 April 2008 2008-04-29

Data Records for Monday, 28 April 2008

Time	Temp	Chill	HIndex	Humid	Dewpt	 Wind 	HiWind	WindDir	Rain 	Barom 
-----	----	-----	------	-----	-----	------	------	-------	-----	----- 
00:00	47.3	47.3	47.3	46	27.6	0	1	315	0.00	29.953 
00:05	47.3	47.3	47.3	45	27.0	0	2	315	0.00	29.952 
00:10	47.4	47.4	47.4	46	27.7	0	1	315	0.00	29.952 
00:15	47.4	47.4	47.4	47	28.2	0	1	315	0.00	29.950 
00:20	47.3	47.3	47.3	46	27.6	0	1	315	0.00	29.944 
00:25	47.3	47.3	47.3	46	27.6	0	1	315	0.00	29.943 
00:30	47.3	47.3	47.3	46	27.6	0	1	315	0.00	29.938 
00:35	47.3	47.3	47.3	46	27.6	0	1	315	0.00	29.933 
00:40	47.3	47.3	47.3	46	27.6	0	1	315	0.00	29.930 
00:45	47.3	47.3	47.3	46	27.6	0	1	315	0.00	29.925 
00:50	47.3	47.3	47.3	46	27.6	0	2	315	0.00	29.924 
00:55	47.3	47.3	47.3	44	26.5	0	3	0	0.00	29.922 
01:00	47.3	47.3	47.3	45	27.0	0	2	338	0.00	29.921 
01:05	47.1	47.1	47.1	45	26.9	0	1	338	0.00	29.920 
01:10	47.1	47.1	47.1	45	26.9	0	1	338	0.00	29.920 
01:15	47.0	47.0	47.0	45	26.8	0	1	338	0.00	29.916 
01:20	47.0	47.0	47.0	45	26.8	0	1	338	0.00	29.910 
01:25	47.0	47.0	47.0	44	26.2	0	1	338	0.00	29.911 
01:30	47.0	47.0	47.0	45	26.8	0	1	338	0.00	29.908 
01:35	47.0	47.0	47.0	45	26.8	0	1	338	0.00	29.907 
01:40	46.8	46.8	46.8	45	26.6	0	1	338	0.00	29.907 
01:45	46.8	46.8	46.8	45	26.6	0	0	---	0.00	29.908 
01:50	46.8	46.8	46.8	45	26.6	0	0	---	0.00	29.907 
01:55	46.7	46.7	46.7	45	26.5	0	0	---	0.00	29.906 
02:00	46.7	46.7	46.7	47	27.6	0	0	---	0.00	29.907 
02:05	46.5	46.5	46.5	46	26.8	0	0	---	0.00	29.907 
02:10	46.5	46.5	46.5	46	26.8	0	0	---	0.00	29.906 
02:15	46.4	46.4	46.4	46	26.8	0	0	---	0.00	29.905 
02:20	46.4	46.4	46.4	45	26.2	0	1	338	0.00	29.905 
02:25	46.4	46.4	46.4	46	26.8	0	0	---	0.00	29.905 
02:30	46.2	46.2	46.2	46	26.6	0	0	---	0.00	29.905 
02:35	46.2	46.2	46.2	46	26.6	0	0	---	0.00	29.905 
02:40	46.2	46.2	46.2	46	26.6	0	0	---	0.00	29.904 
02:45	46.1	46.1	46.1	47	27.0	0	0	---	0.00	29.901 
02:50	46.1	46.1	46.1	47	27.0	0	0	---	0.00	29.901 
02:55	46.0	46.0	46.0	46	26.4	0	0	---	0.00	29.898 
03:00	46.0	46.0	46.0	49	27.9	0	0	---	0.00	29.897 
03:05	45.8	45.8	45.8	49	27.7	0	0	---	0.00	29.895 
03:10	45.8	45.8	45.8	50	28.2	0	0	---	0.00	29.895 
03:15	45.8	45.8	45.8	50	28.2	0	0	---	0.00	29.895 
03:20	45.8	45.8	45.8	52	29.2	0	0	---	0.00	29.894 
03:25	45.8	45.8	45.8	50	28.2	0	0	---	0.00	29.895 
03:30	45.7	45.7	45.7	50	28.1	0	0	---	0.00	29.894 
03:35	45.7	45.7	45.7	50	28.1	0	0	---	0.00	29.891 
03:40	45.7	45.7	45.7	52	29.1	0	0	---	0.00	29.887 
03:45	45.5	45.5	45.5	51	28.4	0	0	---	0.00	29.887 
03:50	45.4	45.4	45.4	50	27.9	0	0	---	0.00	29.889 
03:55	45.4	45.4	45.4	51	28.3	0	0	---	0.00	29.889 
04:00	45.4	45.4	45.4	52	28.8	0	0	---	0.00	29.883 
04:05	45.4	45.4	45.4	52	28.8	0	0	---	0.00	29.882 
04:10	45.2	45.2	45.2	52	28.6	0	0	---	0.00	29.880 
04:15	45.4	45.4	45.4	53	29.3	0	0	---	0.00	29.880 
04:20	45.2	45.2	45.2	53	29.1	0	0	---	0.00	29.879 
04:25	45.2	45.2	45.2	54	29.6	0	0	---	0.00	29.878 
04:30	45.2	45.2	45.2	55	30.0	0	0	---	0.00	29.878 
04:35	45.2	45.2	45.2	55	30.0	0	0	---	0.00	29.877 
04:40	45.2	45.2	45.2	55	30.0	0	0	---	0.00	29.876 
04:45	45.1	45.1	45.1	54	29.5	0	0	---	0.00	29.877 
04:50	45.1	45.1	45.1	54	29.5	0	0	---	0.00	29.876 
04:55	45.1	45.1	45.1	54	29.5	0	0	---	0.00	29.875 
05:00	44.9	44.9	44.9	54	29.3	0	0	---	0.00	29.875 
05:05	44.9	44.9	44.9	54	29.3	0	0	---	0.00	29.876 
05:10	44.9	44.9	44.9	54	29.3	0	0	---	0.00	29.875 
05:15	44.9	44.9	44.9	53	28.8	0	0	---	0.00	29.876 
05:20	45.1	45.1	45.1	54	29.5	0	0	---	0.00	29.875 
05:25	45.1	45.1	45.1	54	29.5	0	0	---	0.00	29.875 
05:30	45.1	45.1	45.1	53	29.0	0	0	---	0.00	29.873 
05:35	45.1	45.1	45.1	53	29.0	0	0	---	0.00	29.871 
05:40	45.1	45.1	45.1	53	29.0	0	0	---	0.00	29.874 
05:45	45.1	45.1	45.1	54	29.5	0	0	---	0.00	29.874 
05:50	44.9	44.9	44.9	53	28.8	0	1	338	0.00	29.871 
05:55	44.9	44.9	44.9	53	28.8	0	0	---	0.00	29.872 
06:00	44.9	44.9	44.9	53	28.8	0	1	338	0.00	29.869 
06:05	44.9	44.9	44.9	52	28.4	0	0	---	0.00	29.869 
06:10	44.8	44.8	44.8	51	27.8	0	0	---	0.00	29.869 
06:15	44.8	44.8	44.8	51	27.8	0	0	---	0.00	29.869 
06:20	44.8	44.8	44.8	53	28.7	0	0	---	0.00	29.867 
06:25	44.8	44.8	44.8	52	28.3	0	0	---	0.00	29.866 
06:30	44.9	44.9	44.9	54	29.3	0	1	338	0.00	29.867 
06:35	45.1	45.1	45.1	54	29.5	0	0	---	0.00	29.867 
06:40	45.2	45.2	45.2	53	29.1	0	1	338	0.00	29.865 
06:45	45.4	45.4	45.4	53	29.3	0	1	338	0.00	29.864 
06:50	45.7	45.7	45.7	54	30.0	0	2	338	0.00	29.864 
06:55	45.8	45.8	45.8	54	30.1	0	1	338	0.00	29.863 
07:00	46.1	46.1	46.1	55	30.8	0	0	---	0.00	29.864 
07:05	46.1	46.1	46.1	53	29.9	0	1	338	0.00	29.864 
07:10	46.2	46.2	46.2	52	29.6	0	2	338	0.00	29.865 
07:15	46.4	46.4	46.4	51	29.3	0	1	338	0.00	29.865 
07:20	46.5	46.5	46.5	53	30.3	0	1	338	0.00	29.865 
07:25	46.8	46.8	46.8	52	30.1	0	1	338	0.00	29.864 
07:30	47.4	47.4	47.4	52	30.7	0	1	338	0.00	29.866 
07:35	48.2	48.2	48.2	50	30.4	0	1	338	0.00	29.865 
07:40	48.9	48.9	48.9	49	30.6	0	2	338	0.00	29.864 
07:45	49.1	49.1	49.1	48	30.3	0	2	225	0.00	29.865 
07:50	48.8	48.8	48.8	50	31.0	0	1	225	0.00	29.864 
07:55	48.6	48.6	48.6	48	29.8	0	2	225	0.00	29.864 
08:00	48.5	48.5	48.5	50	30.7	0	1	225	0.00	29.864 
08:05	48.8	48.8	48.8	52	32.0	0	1	225	0.00	29.865 
08:10	49.1	49.1	49.1	52	32.2	0	1	225	0.00	29.866 
08:15	49.1	49.1	49.1	52	32.2	1	5	248	0.00	29.865 
08:20	49.2	49.2	49.2	53	32.8	0	2	248	0.00	29.866 
08:25	49.5	49.5	49.5	52	32.6	0	2	248	0.00	29.867 
08:30	49.5	49.5	49.5	51	32.1	1	5	90	0.00	29.865 
08:35	49.4	49.4	49.4	52	32.5	1	3	90	0.00	29.868 
08:40	49.4	49.4	49.4	50	31.5	1	4	248	0.00	29.866 
08:45	49.6	49.6	49.6	52	32.7	1	5	248	0.00	29.867 
08:50	49.5	49.5	49.5	51	32.1	1	4	248	0.00	29.869 
08:55	49.5	49.5	49.5	53	33.1	0	1	248	0.00	29.866 
09:00	49.5	49.5	49.5	53	33.1	0	2	248	0.00	29.863 
09:05	49.6	49.6	49.6	54	33.6	0	3	248	0.00	29.865 
09:10	49.9	49.9	49.9	53	33.5	1	3	270	0.00	29.864 
09:15	50.5	50.5	50.5	55	34.9	1	3	248	0.00	29.862 
09:20	51.4	51.4	51.4	53	34.8	1	3	248	0.00	29.860 
09:25	51.7	51.7	51.7	52	34.6	1	5	248	0.00	29.859 
09:30	51.3	51.3	51.3	53	34.8	1	4	248	0.00	29.859 
09:35	50.7	50.7	50.7	56	35.6	1	5	292	0.00	29.860 
09:40	50.5	50.5	50.5	54	34.5	1	3	225	0.00	29.858 
09:45	50.2	50.2	50.2	53	33.7	1	5	248	0.00	29.859 
09:50	50.1	50.1	50.1	53	33.6	1	2	248	0.00	29.857 
09:55	50.8	50.8	50.8	54	34.8	1	4	248	0.00	29.850 
10:00	51.7	51.7	51.7	52	34.6	1	2	248	0.00	29.850 
10:05	52.2	52.2	52.2	46	32.1	1	4	248	0.00	29.852 
10:10	52.8	52.8	52.8	45	32.1	1	4	248	0.00	29.849 
10:15	53.5	53.5	53.5	45	32.7	0	1	248	0.00	29.847 
10:20	54.1	54.1	54.1	45	33.2	1	3	248	0.00	29.845 
10:25	54.4	54.4	54.4	47	34.6	1	4	270	0.00	29.846 
10:30	53.6	53.6	53.6	40	29.9	2	5	270	0.00	29.844 
10:35	52.9	52.9	52.9	39	28.6	1	4	248	0.00	29.845 
10:40	53.3	53.3	53.3	43	31.4	1	3	248	0.00	29.840 
10:45	54.2	54.2	54.2	44	32.8	0	3	225	0.00	29.835 
10:50	54.8	54.8	54.8	39	30.3	1	4	225	0.00	29.835 
10:55	54.5	54.5	54.5	41	31.3	1	2	225	0.00	29.835 
11:00	53.5	53.5	53.5	42	31.0	1	3	292	0.00	29.833 
11:05	52.9	52.9	52.9	44	31.6	0	2	270	0.00	29.833 
11:10	52.6	52.6	52.6	44	31.3	1	2	225	0.00	29.833 
11:15	53.5	53.5	53.5	42	31.0	1	3	225	0.00	29.829 
11:20	54.8	54.8	54.8	41	31.6	1	3	112	0.00	29.822 
11:25	55.7	55.7	55.7	42	33.0	2	6	248	0.00	29.817 
11:30	56.0	56.0	56.0	39	31.4	1	4	248	0.00	29.815 
11:35	55.3	55.3	55.3	40	31.4	1	4	292	0.00	29.815 
11:40	55.0	55.0	55.0	35	27.9	1	6	248	0.00	29.815 
11:45	55.4	55.4	55.4	36	28.9	1	10	248	0.00	29.814 
11:50	55.9	55.9	55.9	34	27.9	1	2	292	0.00	29.814 
11:55	55.7	55.7	55.7	33	27.0	1	4	248	0.00	29.815 
12:00	55.4	55.4	55.4	32	26.0	1	4	90	0.00	29.811 
12:05	55.0	55.0	55.0	32	25.7	2	4	112	0.00	29.809 
12:10	55.3	55.3	55.3	38	30.1	1	3	270	0.00	29.806 
12:15	56.3	56.3	56.3	32	26.8	2	5	248	0.00	29.804 
12:20	56.3	56.3	56.3	31	26.1	1	4	248	0.00	29.802 
12:25	56.7	56.7	56.7	34	28.7	1	3	338	0.00	29.800 
12:30	57.8	57.8	57.8	37	31.7	1	6	248	0.00	29.799 
12:35	58.3	58.3	58.3	31	27.8	1	4	248	0.00	29.798 
12:40	58.0	58.0	58.0	33	29.1	1	3	248	0.00	29.797 
12:45	56.7	56.7	56.7	34	28.7	1	3	248	0.00	29.797 
12:50	56.2	56.2	56.2	32	26.7	1	4	270	0.00	29.797 
12:55	55.6	55.6	55.6	32	26.2	0	1	270	0.00	29.794 
13:00	55.6	55.6	55.6	33	27.0	1	3	270	0.00	29.794 
13:05	55.3	55.3	55.3	33	26.7	1	2	270	0.00	29.793 
13:10	55.1	55.1	55.1	30	24.2	1	4	112	0.00	29.789 
13:15	54.8	54.8	54.8	34	27.0	1	3	112	0.00	29.787 
13:20	54.8	54.8	54.8	33	26.3	0	1	112	0.00	29.786 
13:25	55.0	55.0	55.0	34	27.2	0	2	112	0.00	29.785 
13:30	55.6	55.6	55.6	35	28.4	1	2	338	0.00	29.784 
13:35	56.0	56.0	56.0	32	26.6	1	3	338	0.00	29.784 
13:40	56.0	56.0	56.0	31	25.8	0	1	248	0.00	29.783 
13:45	55.9	55.9	55.9	32	26.5	0	1	248	0.00	29.781 
13:50	56.0	56.0	56.0	34	28.0	1	3	270	0.00	29.779 
13:55	56.5	56.5	56.5	37	30.5	1	2	248	0.00	29.778 
14:00	57.2	57.2	57.2	33	28.4	1	3	248	0.00	29.774 
14:05	56.9	56.9	56.9	31	26.6	0	2	248	0.00	29.773 
14:10	56.6	56.6	56.6	33	27.8	0	3	112	0.00	29.770 
14:15	56.5	56.5	56.5	31	26.2	0	2	180	0.00	29.769 
14:20	56.3	56.3	56.3	35	29.0	0	1	180	0.00	29.768 
14:25	56.3	56.3	56.3	32	26.8	1	3	135	0.00	29.768 
14:30	55.7	55.7	55.7	33	27.0	1	3	112	0.00	29.765 
14:35	55.9	55.9	55.9	38	30.7	0	2	202	0.00	29.764 
14:40	55.7	55.7	55.7	35	28.5	1	4	180	0.00	29.763 
14:45	55.1	55.1	55.1	36	28.6	2	6	270	0.00	29.764 
14:50	54.5	54.5	54.5	34	26.7	1	5	270	0.00	29.765 
14:55	54.5	54.5	54.5	35	27.4	0	1	270	0.00	29.759 
15:00	54.7	54.7	54.7	34	26.9	0	2	270	0.00	29.758 
15:05	54.8	54.8	54.8	34	27.0	0	1	270	0.00	29.760 
15:10	54.4	54.4	54.4	41	31.2	2	9	270	0.00	29.763 
15:15	53.5	53.5	53.5	46	33.2	2	7	248	0.00	29.768 
15:20	52.8	52.8	52.8	46	32.6	2	6	270	0.00	29.769 
15:25	52.2	52.2	52.2	49	33.6	2	5	248	0.00	29.773 
15:30	51.6	51.6	51.6	54	35.5	1	4	248	0.00	29.773 
15:35	51.3	51.3	51.3	54	35.2	0	2	248	0.00	29.773 
15:40	51.4	51.4	51.4	53	34.8	0	2	248	0.00	29.772 
15:45	51.4	51.4	51.4	50	33.4	0	2	248	0.00	29.771 
15:50	51.6	51.6	51.6	50	33.6	0	2	315	0.00	29.771 
15:55	51.7	51.7	51.7	49	33.2	0	2	315	0.00	29.771 
16:00	51.7	51.7	51.7	50	33.7	1	4	292	0.00	29.772 
16:05	51.4	51.4	51.4	49	32.9	2	5	248	0.00	29.773 
16:10	51.1	51.1	51.1	51	33.6	3	10	248	0.00	29.774 
16:15	50.7	50.7	50.7	54	34.7	1	5	270	0.00	29.775 
16:20	50.1	50.1	50.1	53	33.6	3	7	270	0.00	29.779 
16:25	49.8	49.8	49.8	54	33.8	1	4	248	0.00	29.782 
16:30	49.5	49.5	49.5	58	35.3	2	7	248	0.00	29.788 
16:35	48.9	48.9	48.9	63	36.9	3	6	248	0.00	29.790 
16:40	48.2	48.2	48.2	69	38.5	2	6	248	0.00	29.795 
16:45	46.8	46.8	46.8	74	39.0	2	4	248	0.00	29.802 
16:50	45.8	45.8	45.8	79	39.7	2	5	270	0.01	29.807 
16:55	45.2	45.2	45.2	81	39.7	2	7	248	0.00	29.808 
17:00	44.8	44.8	44.8	83	40.0	3	7	248	0.00	29.810 
17:05	44.3	44.3	44.3	84	39.8	3	10	248	0.01	29.813 
17:10	43.9	43.9	43.9	86	40.0	3	9	248	0.00	29.818 
17:15	43.5	43.5	43.5	86	39.6	3	7	248	0.01	29.820 
17:20	42.9	42.9	42.9	87	39.3	3	10	248	0.01	29.825 
17:25	42.5	42.5	42.5	87	38.9	3	8	248	0.01	29.826 
17:30	42.1	42.1	42.1	88	38.8	2	6	248	0.02	29.828 
17:35	42.1	42.1	42.1	89	39.1	0	1	248	0.02	29.826 
17:40	42.1	42.1	42.1	90	39.4	0	1	248	0.01	29.822 
17:45	41.8	41.8	41.8	90	39.1	0	1	248	0.00	29.814 
17:50	41.8	41.8	41.8	90	39.1	1	2	248	0.01	29.809 
17:55	41.9	41.9	41.9	91	39.5	0	2	112	0.00	29.810 
18:00	42.1	42.1	42.1	91	39.7	0	1	112	0.00	29.810 
18:05	42.1	42.1	42.1	91	39.7	0	0	---	0.00	29.811 
18:10	42.1	42.1	42.1	91	39.7	0	2	112	0.00	29.817 
18:15	42.2	42.2	42.2	91	39.8	0	2	180	0.00	29.818 
18:20	42.2	42.2	42.2	92	40.0	0	1	180	0.00	29.814 
18:25	42.2	42.2	42.2	92	40.0	0	1	180	0.00	29.813 
18:30	42.2	42.2	42.2	92	40.0	0	2	202	0.00	29.814 
18:35	42.2	42.2	42.2	92	40.0	0	1	202	0.00	29.814 
18:40	42.1	42.1	42.1	92	39.9	0	2	225	0.00	29.817 
18:45	41.9	41.9	41.9	92	39.7	1	3	248	0.00	29.821 
18:50	41.8	41.8	41.8	92	39.6	0	2	248	0.00	29.822 
18:55	41.6	41.6	41.6	92	39.5	1	4	248	0.00	29.824 
19:00	41.5	41.5	41.5	91	39.1	1	3	248	0.00	29.825 
19:05	41.3	41.3	41.3	91	38.9	1	3	248	0.00	29.823 
19:10	41.3	41.3	41.3	91	38.9	0	1	248	0.00	29.824 
19:15	41.3	41.3	41.3	91	38.9	0	1	248	0.00	29.823 
19:20	41.3	41.3	41.3	91	38.9	0	1	248	0.00	29.822 
19:25	41.3	41.3	41.3	91	38.9	0	1	248	0.00	29.821 
19:30	41.3	41.3	41.3	91	38.9	0	1	248	0.00	29.818 
19:35	41.2	41.2	41.2	91	38.8	0	1	248	0.00	29.820 
19:40	41.2	41.2	41.2	91	38.8	0	1	248	0.00	29.822 
19:45	41.3	41.3	41.3	91	38.9	0	2	248	0.00	29.823 
19:50	41.3	41.3	41.3	91	38.9	0	1	292	0.00	29.825 
19:55	41.2	41.2	41.2	90	38.5	0	1	292	0.00	29.827 
20:00	41.2	41.2	41.2	90	38.5	0	1	292	0.00	29.835 
20:05	41.2	41.2	41.2	90	38.5	0	2	292	0.00	29.837 
20:10	41.2	41.2	41.2	90	38.5	0	1	292	0.00	29.838 
20:15	41.2	41.2	41.2	89	38.2	0	1	292	0.00	29.836 
20:20	41.2	41.2	41.2	89	38.2	0	2	292	0.00	29.835 
20:25	41.2	41.2	41.2	89	38.2	0	1	270	0.00	29.837 
20:30	41.2	41.2	41.2	89	38.2	0	1	270	0.00	29.839 
20:35	41.2	41.2	41.2	89	38.2	0	1	270	0.00	29.840 
20:40	41.1	41.1	41.1	89	38.1	0	1	292	0.00	29.840 
20:45	41.1	41.1	41.1	89	38.1	0	2	292	0.00	29.840 
20:50	41.1	41.1	41.1	89	38.1	0	2	338	0.00	29.840 
20:55	41.1	41.1	41.1	88	37.8	0	1	338	0.00	29.840 
21:00	41.1	41.1	41.1	89	38.1	0	2	248	0.00	29.840 
21:05	41.1	41.1	41.1	89	38.1	0	1	248	0.00	29.840 
21:10	41.1	41.1	41.1	89	38.1	0	1	248	0.00	29.840 
21:15	41.2	41.2	41.2	89	38.2	0	1	248	0.00	29.839 
21:20	41.1	41.1	41.1	89	38.1	0	1	248	0.00	29.839 
21:25	41.1	41.1	41.1	89	38.1	0	1	248	0.00	29.839 
21:30	41.2	41.2	41.2	89	38.2	0	1	248	0.00	29.839 
21:35	41.2	41.2	41.2	89	38.2	0	1	248	0.00	29.839 
21:40	41.2	41.2	41.2	89	38.2	0	1	248	0.00	29.839 
21:45	41.2	41.2	41.2	89	38.2	0	1	248	0.00	29.839 
21:50	41.2	41.2	41.2	89	38.2	0	1	248	0.00	29.840 
21:55	41.2	41.2	41.2	89	38.2	0	1	248	0.00	29.841 
22:00	41.2	41.2	41.2	90	38.5	0	1	248	0.00	29.842 
22:05	41.3	41.3	41.3	90	38.6	0	1	248	0.00	29.842 
22:10	41.3	41.3	41.3	90	38.6	0	1	248	0.00	29.843 
22:15	41.3	41.3	41.3	90	38.6	0	0	---	0.00	29.843 
22:20	41.3	41.3	41.3	90	38.6	0	2	270	0.00	29.842 
22:25	41.3	41.3	41.3	90	38.6	0	2	270	0.00	29.845 
22:30	41.3	41.3	41.3	90	38.6	0	1	270	0.00	29.845 
22:35	41.3	41.3	41.3	90	38.6	0	2	270	0.00	29.845 
22:40	41.3	41.3	41.3	90	38.6	0	1	270	0.00	29.846 
22:45	41.3	41.3	41.3	90	38.6	0	1	270	0.00	29.847 
22:50	41.1	41.1	41.1	91	38.7	0	2	270	0.01	29.850 
22:55	40.9	40.9	40.9	91	38.5	0	1	270	0.00	29.850 
23:00	40.8	40.8	40.8	91	38.4	0	1	270	0.01	29.849 
23:05	40.8	40.8	40.8	91	38.4	0	1	270	0.00	29.848 
23:10	40.6	40.6	40.6	92	38.5	0	1	270	0.00	29.850 
23:15	40.5	40.5	40.5	92	38.4	0	1	270	0.01	29.850 
23:20	40.5	40.5	40.5	92	38.4	0	2	292	0.00	29.851 
23:25	40.5	40.5	40.5	92	38.4	0	2	292	0.01	29.852 
23:30	40.5	40.5	40.5	92	38.4	0	2	292	0.00	29.853 
23:35	40.2	40.2	40.2	92	38.1	0	2	338	0.00	29.857 
23:40	40.2	40.2	40.2	92	38.1	0	1	338	0.01	29.860 
23:45	40.1	40.1	40.1	92	38.0	0	1	338	0.00	29.864 
23:50	40.1	40.1	40.1	92	38.0	0	1	338	0.01	29.865 
23:55	39.9	39.9	39.9	92	37.8	0	2	338	0.00	29.867 

CoCoRaHS
IN-AL-39
A2 Web Hosting
Creative Commons License
GoDaddy
Look for:

loaded 2017-10-18 21:49:31 • last modified 2010-11-18 10:43:29
Privacy PolicyDisclaimer
• wx.awcolley.com is powered by PmWiki v.2002016 •
• all content (unless otherwise noted) © 2017 A W Colley